Time;durP1;ratioP1;P1;durP2;ratioP2;P2;SDS_P1;SDS_P2;PMS_P1;PMS_P2;Temp;Humidity;BMP_temperature;BMP_pressure;BME280_temperature;BME280_humidity;BME280_pressure;Samples;Min_cycle;Max_cycle;Signal;HPM_P1;HPM_P2
2022/05/26 00:01:04;;;;;;;34.15;6.78;;;;;;;;;;4932679;29;21175;-65
2022/05/26 00:03:32;;;;;;;36.78;6.75;;;;;;;;;;4945434;29;20542;-65
2022/05/26 00:06:01;;;;;;;42.63;6.63;;;;;;;;;;4928661;29;20054;-65
2022/05/26 00:08:28;;;;;;;41.58;6.85;;;;;;;;;;4948001;28;20047;-65
2022/05/26 00:10:55;;;;;;;39.88;6.13;;;;;;;;;;4948539;28;20056;-65
2022/05/26 00:13:23;;;;;;;39.20;6.97;;;;;;;;;;4926963;29;20145;-65
2022/05/26 00:15:50;;;;;;;34.67;6.78;;;;;;;;;;4932983;29;20059;-65
2022/05/26 00:18:18;;;;;;;40.33;6.25;;;;;;;;;;4950429;28;20043;-65
2022/05/26 00:20:45;;;;;;;43.67;6.82;;;;;;;;;;4950380;29;20547;-65
2022/05/26 00:23:13;;;;;;;46.00;6.90;;;;;;;;;;4948822;29;20055;-65
2022/05/26 00:25:41;;;;;;;46.10;8.25;;;;;;;;;;4949821;29;20152;-65
2022/05/26 00:28:08;;;;;;;37.97;6.38;;;;;;;;;;4931955;29;20051;-65
2022/05/26 00:30:37;;;;;;;35.00;6.07;;;;;;;;;;4949559;29;20039;-65
2022/05/26 00:33:04;;;;;;;33.75;6.07;;;;;;;;;;4949225;29;20063;-65
2022/05/26 00:35:34;;;;;;;28.23;4.78;;;;;;;;;;4949254;28;20059;-65
2022/05/26 00:38:02;;;;;;;29.00;4.85;;;;;;;;;;4946487;28;20094;-65
2022/05/26 00:40:31;;;;;;;32.17;4.97;;;;;;;;;;4946290;29;20059;-65
2022/05/26 00:42:58;;;;;;;25.35;4.75;;;;;;;;;;4948153;28;20521;-65
2022/05/26 00:45:26;;;;;;;28.48;5.03;;;;;;;;;;4948913;28;20078;-65
2022/05/26 00:47:53;;;;;;;23.23;4.38;;;;;;;;;;4949048;29;20126;-65
2022/05/26 00:50:22;;;;;;;23.30;4.63;;;;;;;;;;4947314;28;20462;-65
2022/05/26 00:52:52;;;;;;;30.20;4.45;;;;;;;;;;4947928;29;20054;-65
2022/05/26 00:55:22;;;;;;;24.40;4.30;;;;;;;;;;4928860;29;20043;-65
2022/05/26 00:57:52;;;;;;;30.13;5.07;;;;;;;;;;4949189;29;20047;-65
2022/05/26 01:00:20;;;;;;;29.70;5.50;;;;;;;;;;4952167;28;20051;-63
2022/05/26 01:02:49;;;;;;;28.38;4.82;;;;;;;;;;4948702;29;20533;-63
2022/05/26 01:05:19;;;;;;;30.85;5.10;;;;;;;;;;4931138;29;20078;-63
2022/05/26 01:07:47;;;;;;;26.38;5.15;;;;;;;;;;4948188;29;20114;-63
2022/05/26 01:10:16;;;;;;;29.15;4.25;;;;;;;;;;4948364;28;20236;-63
2022/05/26 01:12:43;;;;;;;25.13;4.53;;;;;;;;;;4948694;29;20047;-63
2022/05/26 01:15:15;;;;;;;24.05;3.72;;;;;;;;;;4926218;29;20051;-63
2022/05/26 01:17:46;;;;;;;31.10;4.90;;;;;;;;;;4945673;29;20055;-63
2022/05/26 01:20:33;;;;;;;23.98;4.45;;;;;;;;;;4946156;28;20055;-63
2022/05/26 01:23:17;;;;;;;22.15;3.78;;;;;;;;;;4928398;29;20098;-63
2022/05/26 01:26:00;;;;;;;22.65;3.58;;;;;;;;;;4943847;29;20103;-63
2022/05/26 01:28:34;;;;;;;18.30;3.58;;;;;;;;;;4931015;29;20102;-63
2022/05/26 01:31:01;;;;;;;;;;;;;;;;;;4952799;29;20055;-63
2022/05/26 01:33:36;;;;;;;23.77;4.03;;;;;;;;;;4952636;29;19977;-63
2022/05/26 01:36:13;;;;;;;25.58;3.83;;;;;;;;;;4951751;29;20055;-63
2022/05/26 01:38:49;;;;;;;21.35;3.88;;;;;;;;;;4950064;29;20106;-63
2022/05/26 01:41:21;;;;;;;17.55;3.38;;;;;;;;;;4952665;28;20047;-63
2022/05/26 01:43:51;;;;;;;27.17;4.82;;;;;;;;;;4946271;29;20799;-63
2022/05/26 01:46:22;;;;;;;22.52;3.80;;;;;;;;;;4951076;29;20055;-63
2022/05/26 01:48:54;;;;;;;24.63;3.50;;;;;;;;;;4933357;29;20057;-63
2022/05/26 01:51:25;;;;;;;25.88;3.67;;;;;;;;;;4953207;29;20050;-63
2022/05/26 01:53:58;;;;;;;23.95;4.97;;;;;;;;;;4951927;29;20059;-63
2022/05/26 01:56:27;;;;;;;28.75;4.47;;;;;;;;;;4934462;29;20103;-63
2022/05/26 01:58:58;;;;;;;24.45;3.95;;;;;;;;;;4949232;29;20055;-63
2022/05/26 02:01:29;;;;;;;20.70;4.05;;;;;;;;;;4949521;29;20114;-63
2022/05/26 02:03:58;;;;;;;31.55;4.53;;;;;;;;;;4949619;28;20461;-63
2022/05/26 02:06:30;;;;;;;23.90;3.58;;;;;;;;;;4952530;29;20109;-63
2022/05/26 02:09:00;;;;;;;21.30;4.43;;;;;;;;;;4951255;29;20481;-63
2022/05/26 02:11:28;;;;;;;26.58;4.28;;;;;;;;;;4950933;29;20101;-63
2022/05/26 02:13:57;;;;;;;23.08;3.60;;;;;;;;;;4952157;29;20054;-63
2022/05/26 02:16:30;;;;;;;19.30;3.40;;;;;;;;;;4946229;29;20558;-63
2022/05/26 02:19:01;;;;;;;21.25;3.42;;;;;;;;;;4951226;29;20054;-63
2022/05/26 02:21:31;;;;;;;16.70;3.22;;;;;;;;;;4950032;29;20066;-63
2022/05/26 02:24:01;;;;;;;18.95;3.00;;;;;;;;;;4951600;28;20087;-63
2022/05/26 02:26:28;;;;;;;14.57;2.28;;;;;;;;;;4934625;29;20058;-63
2022/05/26 02:31:42;;;;;;;15.43;2.97;;;;;;;;;;4951324;28;20043;-63
2022/05/26 02:34:12;;;;;;;18.52;2.78;;;;;;;;;;4950922;29;20047;-63
2022/05/26 02:36:40;;;;;;;20.58;2.78;;;;;;;;;;4946325;29;20081;-63
2022/05/26 02:39:07;;;;;;;13.82;2.83;;;;;;;;;;4950848;29;20055;-63
2022/05/26 02:41:35;;;;;;;17.40;2.28;;;;;;;;;;4950610;29;20043;-63
2022/05/26 02:44:02;;;;;;;13.27;2.10;;;;;;;;;;4950807;29;20047;-63
2022/05/26 02:46:34;;;;;;;15.45;1.92;;;;;;;;;;4951803;29;20090;-63
2022/05/26 02:49:08;;;;;;;13.52;2.28;;;;;;;;;;4949116;29;20047;-63
2022/05/26 02:51:38;;;;;;;12.85;2.10;;;;;;;;;;4947779;28;20059;-63
2022/05/26 02:54:11;;;;;;;14.27;2.00;;;;;;;;;;4950616;29;20047;-63
2022/05/26 02:56:45;;;;;;;25.15;2.20;;;;;;;;;;4949279;29;20402;-63
2022/05/26 02:59:15;;;;;;;11.18;1.60;;;;;;;;;;4950464;29;20054;-63
2022/05/26 03:01:45;;;;;;;11.65;1.60;;;;;;;;;;4930659;29;20361;-63
2022/05/26 03:04:16;;;;;;;15.70;1.83;;;;;;;;;;4950960;29;20047;-63
2022/05/26 03:06:46;;;;;;;11.07;1.73;;;;;;;;;;4952557;28;20055;-63
2022/05/26 03:09:14;;;;;;;11.05;1.77;;;;;;;;;;4944482;29;20043;-63
2022/05/26 03:11:46;;;;;;;14.00;1.98;;;;;;;;;;4950962;29;20514;-63
2022/05/26 03:14:14;;;;;;;10.88;1.80;;;;;;;;;;4932179;29;20062;-63
2022/05/26 03:16:42;;;;;;;10.82;1.85;;;;;;;;;;4933254;29;20491;-63
2022/05/26 03:19:09;;;;;;;9.02;1.65;;;;;;;;;;4950515;29;20060;-63
2022/05/26 03:21:36;;;;;;;16.48;2.25;;;;;;;;;;4950775;29;20054;-63
2022/05/26 03:24:05;;;;;;;12.38;2.00;;;;;;;;;;4924408;29;20047;-63
2022/05/26 03:26:32;;;;;;;8.40;1.50;;;;;;;;;;4949059;29;20051;-63
2022/05/26 03:28:59;;;;;;;11.40;2.25;;;;;;;;;;4949927;29;20059;-63
2022/05/26 03:31:27;;;;;;;12.05;1.80;;;;;;;;;;4951233;29;20113;-63
2022/05/26 03:42:16;;;;;;;15.60;1.88;;;;;;;;;;4947914;28;20047;-63
2022/05/26 03:44:44;;;;;;;12.85;2.13;;;;;;;;;;4950328;29;20093;-63
2022/05/26 03:47:11;;;;;;;11.35;1.70;;;;;;;;;;4950247;29;20466;-63
2022/05/26 03:49:38;;;;;;;12.75;1.85;;;;;;;;;;4949429;28;20051;-63
2022/05/26 03:52:06;;;;;;;13.07;1.50;;;;;;;;;;4949651;29;20051;-63
2022/05/26 03:54:35;;;;;;;9.90;1.50;;;;;;;;;;4946284;29;20060;-63
2022/05/26 03:57:03;;;;;;;17.38;1.95;;;;;;;;;;4931078;29;20047;-63
2022/05/26 03:59:32;;;;;;;8.68;1.58;;;;;;;;;;4949566;29;20434;-63
2022/05/26 04:01:59;;;;;;;10.93;1.77;;;;;;;;;;4950042;29;20134;-63
2022/05/26 04:04:26;;;;;;;13.60;2.40;;;;;;;;;;4948418;29;20059;-63
2022/05/26 04:06:53;;;;;;;9.35;1.85;;;;;;;;;;4948986;29;20127;-63
2022/05/26 04:09:21;;;;;;;9.30;1.40;;;;;;;;;;4949002;29;20098;-63
2022/05/26 04:11:49;;;;;;;12.35;1.63;;;;;;;;;;4950394;29;20093;-63
2022/05/26 04:14:17;;;;;;;15.27;2.22;;;;;;;;;;4949503;29;20060;-63
2022/05/26 04:16:44;;;;;;;10.43;1.75;;;;;;;;;;4949260;29;20502;-63
2022/05/26 04:19:11;;;;;;;12.52;2.20;;;;;;;;;;4932237;29;20055;-63
2022/05/26 04:22:15;;;;;;;9.93;1.65;;;;;;;;;;4950217;29;20134;-63
2022/05/26 04:24:27;;;;;;;12.85;1.88;;;;;;;;;;4943458;29;20051;-63
2022/05/26 04:26:55;;;;;;;11.40;1.77;;;;;;;;;;4949425;29;20051;-63
2022/05/26 04:29:23;;;;;;;9.95;1.52;;;;;;;;;;4947230;29;20379;-63
2022/05/26 04:31:50;;;;;;;14.25;2.25;;;;;;;;;;4949497;28;20122;-63
2022/05/26 04:34:18;;;;;;;12.38;2.20;;;;;;;;;;4931164;29;20088;-63
2022/05/26 04:36:45;;;;;;;13.25;1.98;;;;;;;;;;4944619;29;20047;-63
2022/05/26 04:39:14;;;;;;;10.95;1.83;;;;;;;;;;4948671;29;20055;-63
2022/05/26 04:41:41;;;;;;;13.32;1.80;;;;;;;;;;4931253;29;20512;-63
2022/05/26 04:44:10;;;;;;;16.40;1.73;;;;;;;;;;4945563;29;20140;-63
2022/05/26 04:46:38;;;;;;;10.75;1.45;;;;;;;;;;4949856;29;20055;-63
2022/05/26 04:49:05;;;;;;;14.55;1.95;;;;;;;;;;4949149;28;20051;-63
2022/05/26 04:51:34;;;;;;;10.45;1.85;;;;;;;;;;4932172;29;20051;-63
2022/05/26 04:54:01;;;;;;;16.77;1.80;;;;;;;;;;4948407;28;20058;-63
2022/05/26 04:56:28;;;;;;;13.93;2.28;;;;;;;;;;4949378;28;20054;-63
2022/05/26 04:58:55;;;;;;;12.95;1.90;;;;;;;;;;4931694;28;20062;-63
2022/05/26 05:01:24;;;;;;;8.93;1.80;;;;;;;;;;4948992;29;20055;-63
2022/05/26 05:03:51;;;;;;;15.23;2.40;;;;;;;;;;4948475;28;20055;-63
2022/05/26 05:06:19;;;;;;;16.25;1.80;;;;;;;;;;4948241;29;20047;-63
2022/05/26 05:08:46;;;;;;;11.75;1.80;;;;;;;;;;4948901;28;20044;-63
2022/05/26 05:11:13;;;;;;;15.23;2.28;;;;;;;;;;4931302;29;20853;-63
2022/05/26 05:13:41;;;;;;;13.70;2.03;;;;;;;;;;4949828;28;20043;-63
2022/05/26 05:16:11;;;;;;;11.57;1.83;;;;;;;;;;4942490;29;20055;-63
2022/05/26 05:18:39;;;;;;;11.18;1.58;;;;;;;;;;4948667;28;20391;-63
2022/05/26 05:21:08;;;;;;;12.75;1.40;;;;;;;;;;4948769;28;20105;-63
2022/05/26 05:23:39;;;;;;;12.00;1.92;;;;;;;;;;4949275;28;20066;-63
2022/05/26 05:26:09;;;;;;;9.63;1.70;;;;;;;;;;4947066;28;20051;-63
2022/05/26 05:28:37;;;;;;;6.30;1.30;;;;;;;;;;4944766;29;20569;-63
2022/05/26 05:31:06;;;;;;;10.23;1.65;;;;;;;;;;4937881;29;20051;-63
2022/05/26 05:33:36;;;;;;;8.82;1.77;;;;;;;;;;4944135;29;20078;-63
2022/05/26 05:36:07;;;;;;;11.25;1.77;;;;;;;;;;4938483;29;20059;-63
2022/05/26 05:38:35;;;;;;;12.25;1.45;;;;;;;;;;4922485;29;20563;-64
2022/05/26 05:41:03;;;;;;;9.85;1.60;;;;;;;;;;4925872;29;20058;-63
2022/05/26 05:43:31;;;;;;;7.85;1.50;;;;;;;;;;4937663;29;20047;-63
2022/05/26 05:45:58;;;;;;;9.15;1.17;;;;;;;;;;4939527;29;20058;-63
2022/05/26 05:48:25;;;;;;;14.13;1.65;;;;;;;;;;4940619;29;20103;-63
2022/05/26 05:50:52;;;;;;;8.40;1.27;;;;;;;;;;4941141;29;20051;-63
2022/05/26 05:53:21;;;;;;;12.07;1.77;;;;;;;;;;4942795;29;20055;-63
2022/05/26 05:55:48;;;;;;;7.70;1.27;;;;;;;;;;4940524;28;20051;-63
2022/05/26 05:58:16;;;;;;;7.57;1.20;;;;;;;;;;4935372;29;20067;-64
2022/05/26 06:00:43;;;;;;;9.50;1.65;;;;;;;;;;4935089;29;20495;-64
2022/05/26 06:03:11;;;;;;;11.05;1.85;;;;;;;;;;4933269;29;20600;-64
2022/05/26 06:05:38;;;;;;;9.15;1.55;;;;;;;;;;4941652;28;20113;-64
2022/05/26 06:08:06;;;;;;;10.60;1.52;;;;;;;;;;4921981;29;20502;-64
2022/05/26 06:10:35;;;;;;;12.27;1.80;;;;;;;;;;4941786;29;20130;-64
2022/05/26 06:13:02;;;;;;;6.05;1.45;;;;;;;;;;4941488;29;20678;-64
2022/05/26 06:15:29;;;;;;;10.18;1.60;;;;;;;;;;4920585;29;20048;-64
2022/05/26 06:17:58;;;;;;;16.08;2.50;;;;;;;;;;4946417;29;20043;-64
2022/05/26 06:20:26;;;;;;;14.93;2.08;;;;;;;;;;4941714;29;20138;-64
2022/05/26 06:22:53;;;;;;;9.55;1.85;;;;;;;;;;4930130;29;20060;-64
2022/05/26 06:25:21;;;;;;;14.05;1.55;;;;;;;;;;4939427;28;20051;-64
2022/05/26 06:30:34;;;;;;;10.07;1.48;;;;;;;;;;4941291;28;20403;-64
2022/05/26 06:38:33;;;;;;;14.10;1.90;;;;;;;;;;4941604;28;20039;-64
2022/05/26 06:42:05;;;;;;;9.52;2.00;;;;;;;;;;4936426;29;20070;-64
2022/05/26 06:43:51;;;;;;;16.90;1.80;;;;;;;;;;4943574;29;20058;-65
2022/05/26 06:46:23;;;;;;;13.30;1.73;;;;;;;;;;4928699;29;20047;-64
2022/05/26 06:48:50;;;;;;;11.95;1.92;;;;;;;;;;4940536;29;20058;-64
2022/05/26 06:51:18;;;;;;;20.08;2.15;;;;;;;;;;4941298;29;20111;-64
2022/05/26 06:53:45;;;;;;;13.85;1.77;;;;;;;;;;4920650;29;20059;-64
2022/05/26 06:56:12;;;;;;;15.23;2.30;;;;;;;;;;4937909;29;20055;-64
2022/05/26 06:58:40;;;;;;;17.02;1.70;;;;;;;;;;4941703;29;20055;-64
2022/05/26 07:01:08;;;;;;;7.65;1.45;;;;;;;;;;4939479;29;20055;-64
2022/05/26 07:03:36;;;;;;;14.63;1.60;;;;;;;;;;4939396;29;20468;-64
2022/05/26 07:06:03;;;;;;;13.82;2.70;;;;;;;;;;4939039;29;20066;-64
2022/05/26 07:08:30;;;;;;;10.18;1.73;;;;;;;;;;4942069;29;20422;-64
2022/05/26 07:11:00;;;;;;;10.93;2.10;;;;;;;;;;4941008;29;20051;-65
2022/05/26 07:13:27;;;;;;;6.47;1.88;;;;;;;;;;4938383;29;20114;-64
2022/05/26 07:15:55;;;;;;;9.32;1.58;;;;;;;;;;4927480;29;20507;-64
2022/05/26 07:18:23;;;;;;;27.17;2.03;;;;;;;;;;4940484;28;20103;-65
2022/05/26 07:20:50;;;;;;;10.73;1.83;;;;;;;;;;4944720;29;20047;-64
2022/05/26 07:23:18;;;;;;;7.32;1.58;;;;;;;;;;4944462;29;20047;-64
2022/05/26 07:25:45;;;;;;;11.60;1.60;;;;;;;;;;4944795;28;20708;-64
2022/05/26 07:28:13;;;;;;;12.23;1.85;;;;;;;;;;4931835;29;20055;-64
2022/05/26 07:30:40;;;;;;;9.00;1.83;;;;;;;;;;4944921;29;20886;-65
2022/05/26 07:33:07;;;;;;;10.90;1.58;;;;;;;;;;4923212;29;20059;-65
2022/05/26 07:35:36;;;;;;;13.68;1.98;;;;;;;;;;4945523;29;20090;-65
2022/05/26 07:43:42;;;;;;;9.52;1.67;;;;;;;;;;4902376;29;20133;-64
2022/05/26 07:46:10;;;;;;;12.65;1.50;;;;;;;;;;4949110;29;20062;-64
2022/05/26 07:48:38;;;;;;;9.68;1.95;;;;;;;;;;4946590;29;20089;-64
2022/05/26 07:51:06;;;;;;;12.77;1.52;;;;;;;;;;4949072;29;20490;-64
2022/05/26 07:53:33;;;;;;;10.88;1.67;;;;;;;;;;4944677;29;20047;-64
2022/05/26 07:56:02;;;;;;;12.18;1.70;;;;;;;;;;4942640;29;20417;-65
2022/05/26 07:58:29;;;;;;;6.15;1.20;;;;;;;;;;4948711;29;20063;-65
2022/05/26 08:00:57;;;;;;;9.15;1.58;;;;;;;;;;4931819;28;20055;-65
2022/05/26 08:03:24;;;;;;;11.95;1.70;;;;;;;;;;4948843;29;20051;-65
2022/05/26 08:05:52;;;;;;;7.90;1.38;;;;;;;;;;4947849;29;20043;-65
2022/05/26 08:08:20;;;;;;;11.95;1.92;;;;;;;;;;4931395;29;20059;-65
2022/05/26 08:10:47;;;;;;;8.73;1.30;;;;;;;;;;4941308;29;20068;-65
2022/05/26 08:13:14;;;;;;;9.65;1.70;;;;;;;;;;4940668;29;20054;-65
2022/05/26 08:15:43;;;;;;;11.60;1.73;;;;;;;;;;4940889;29;20051;-65
2022/05/26 08:18:10;;;;;;;9.32;1.67;;;;;;;;;;4945800;29;20766;-64
2022/05/26 08:20:38;;;;;;;8.52;1.60;;;;;;;;;;4948377;29;20059;-65
2022/05/26 08:23:05;;;;;;;5.95;1.50;;;;;;;;;;4947952;29;20134;-65
2022/05/26 08:25:34;;;;;;;5.43;1.45;;;;;;;;;;4948781;29;20047;-65
2022/05/26 08:28:01;;;;;;;14.45;2.50;;;;;;;;;;4946367;28;20055;-65
2022/05/26 08:30:28;;;;;;;6.78;1.35;;;;;;;;;;4928447;29;20058;-65
2022/05/26 08:32:56;;;;;;;9.18;1.40;;;;;;;;;;4948438;29;20055;-65
2022/05/26 08:35:24;;;;;;;9.93;1.40;;;;;;;;;;4946398;29;20062;-64
2022/05/26 08:37:51;;;;;;;13.05;1.50;;;;;;;;;;4948085;29;20055;-64
2022/05/26 08:40:26;;;;;;;9.88;1.70;;;;;;;;;;4947761;29;20059;-64
2022/05/26 08:42:55;;;;;;;8.90;1.40;;;;;;;;;;4943400;28;20409;-64
2022/05/26 08:45:22;;;;;;;9.00;1.60;;;;;;;;;;4946533;28;20447;-64
2022/05/26 08:47:51;;;;;;;5.97;1.30;;;;;;;;;;4929050;29;20489;-64
2022/05/26 08:50:19;;;;;;;10.07;1.55;;;;;;;;;;4944645;29;20058;-64
2022/05/26 08:52:48;;;;;;;6.68;1.50;;;;;;;;;;4948048;29;20055;-64
2022/05/26 08:55:17;;;;;;;9.23;1.58;;;;;;;;;;4947661;28;20062;-64
2022/05/26 08:57:45;;;;;;;7.25;1.00;;;;;;;;;;4947844;28;20578;-64
2022/05/26 09:00:16;;;;;;;7.15;1.38;;;;;;;;;;4945154;28;20047;-64
2022/05/26 09:02:43;;;;;;;7.97;1.38;;;;;;;;;;4947388;29;20063;-64
2022/05/26 09:05:16;;;;;;;4.72;1.10;;;;;;;;;;4929690;29;20406;-64
2022/05/26 09:13:27;;;;;;;5.32;1.10;;;;;;;;;;4929428;29;20043;-65
2022/05/26 09:15:55;;;;;;;8.82;1.60;;;;;;;;;;4947176;28;20426;-65
2022/05/26 09:18:23;;;;;;;7.65;2.10;;;;;;;;;;4945650;29;20051;-64
2022/05/26 09:20:51;;;;;;;8.75;1.75;;;;;;;;;;4945987;29;20059;-65
2022/05/26 09:23:26;;;;;;;7.35;1.38;;;;;;;;;;4947158;29;20059;-64
2022/05/26 09:25:54;;;;;;;8.25;1.52;;;;;;;;;;4949694;28;20047;-65
2022/05/26 09:28:29;;;;;;;9.13;1.50;;;;;;;;;;4929908;29;20134;-65
2022/05/26 09:31:16;;;;;;;12.65;1.63;;;;;;;;;;4942497;28;20489;-65
2022/05/26 09:33:44;;;;;;;8.02;1.63;;;;;;;;;;4942281;29;20451;-65
2022/05/26 09:36:15;;;;;;;8.05;1.30;;;;;;;;;;4947130;29;20082;-64
2022/05/26 09:38:44;;;;;;;5.90;1.33;;;;;;;;;;4948072;29;20043;-64
2022/05/26 09:41:15;;;;;;;8.90;1.58;;;;;;;;;;4932435;29;20153;-65
2022/05/26 09:43:47;;;;;;;9.05;1.80;;;;;;;;;;4951231;29;20044;-65
2022/05/26 09:46:16;;;;;;;6.78;1.77;;;;;;;;;;4948775;29;20058;-65
2022/05/26 09:48:44;;;;;;;11.75;1.95;;;;;;;;;;4951445;29;20047;-65
2022/05/26 09:51:14;;;;;;;7.00;1.52;;;;;;;;;;4950486;29;20063;-65
2022/05/26 09:53:42;;;;;;;8.18;1.50;;;;;;;;;;4931930;29;20067;-65
2022/05/26 09:56:12;;;;;;;7.32;1.80;;;;;;;;;;4950882;29;20047;-65
2022/05/26 09:58:41;;;;;;;13.68;1.80;;;;;;;;;;4949972;29;20489;-65
2022/05/26 10:01:10;;;;;;;8.35;1.70;;;;;;;;;;4950722;29;20393;-65
2022/05/26 10:03:44;;;;;;;7.30;1.55;;;;;;;;;;4951014;29;20051;-65
2022/05/26 10:06:16;;;;;;;6.95;1.60;;;;;;;;;;4950278;29;20043;-65
2022/05/26 10:08:49;;;;;;;8.65;1.95;;;;;;;;;;4947593;29;20059;-65
2022/05/26 10:11:18;;;;;;;7.00;1.67;;;;;;;;;;4947898;29;20593;-65
2022/05/26 10:14:02;;;;;;;9.70;1.85;;;;;;;;;;4948153;29;20047;-65
2022/05/26 10:16:33;;;;;;;8.77;2.20;;;;;;;;;;4951233;29;20058;-65
2022/05/26 10:19:12;;;;;;;11.60;1.90;;;;;;;;;;4933250;29;20106;-65
2022/05/26 10:21:52;;;;;;;11.05;1.98;;;;;;;;;;4953192;28;20106;-65
2022/05/26 10:24:32;;;;;;;8.43;2.03;;;;;;;;;;4933561;29;20131;-65
2022/05/26 10:27:07;;;;;;;9.70;1.95;;;;;;;;;;4950083;29;20051;-64
2022/05/26 10:29:45;;;;;;;7.75;1.80;;;;;;;;;;4950610;29;20058;-65
2022/05/26 10:32:16;;;;;;;8.68;2.15;;;;;;;;;;4933027;29;20369;-65
2022/05/26 10:35:01;;;;;;;12.27;2.45;;;;;;;;;;4948857;29;20053;-65
2022/05/26 10:37:42;;;;;;;11.55;2.05;;;;;;;;;;4946870;29;20051;-65
2022/05/26 10:40:27;;;;;;;10.98;2.30;;;;;;;;;;4931674;29;20517;-64
2022/05/26 10:42:55;;;;;;;6.72;1.90;;;;;;;;;;4947920;29;20411;-65
2022/05/26 10:45:27;;;;;;;7.80;2.10;;;;;;;;;;4946355;29;20062;-65
2022/05/26 10:47:58;;;;;;;6.95;1.90;;;;;;;;;;4949539;29;20454;-65
2022/05/26 10:50:29;;;;;;;9.20;1.98;;;;;;;;;;4950071;29;20051;-65
2022/05/26 10:53:00;;;;;;;9.07;1.65;;;;;;;;;;4949365;28;20059;-65
2022/05/26 10:55:32;;;;;;;8.52;1.83;;;;;;;;;;4947473;29;20490;-65
2022/05/26 10:58:02;;;;;;;10.70;1.95;;;;;;;;;;4922257;29;20043;-65
2022/05/26 11:00:30;;;;;;;7.97;1.70;;;;;;;;;;4945848;29;20476;-65
2022/05/26 11:03:00;;;;;;;9.55;2.13;;;;;;;;;;4940149;29;20051;-65
2022/05/26 11:05:32;;;;;;;8.07;1.38;;;;;;;;;;4942451;28;20051;-66
2022/05/26 11:08:09;;;;;;;10.52;2.15;;;;;;;;;;4927632;29;20297;-65
2022/05/26 11:10:38;;;;;;;12.85;2.00;;;;;;;;;;4938271;29;20082;-65
2022/05/26 11:13:07;;;;;;;8.88;1.75;;;;;;;;;;4945929;29;20088;-65
2022/05/26 11:18:24;;;;;;;9.68;2.10;;;;;;;;;;4947880;29;20141;-65
2022/05/26 11:20:54;;;;;;;11.32;2.20;;;;;;;;;;4949713;29;20051;-65
2022/05/26 11:23:23;;;;;;;10.13;1.70;;;;;;;;;;4948735;29;20065;-66
2022/05/26 11:25:56;;;;;;;6.38;1.67;;;;;;;;;;4928621;29;20419;-65
2022/05/26 11:28:29;;;;;;;5.43;1.50;;;;;;;;;;4947425;29;20106;-65
2022/05/26 11:36:35;;;;;;;5.63;1.58;;;;;;;;;;4948099;29;20134;-65
2022/05/26 11:39:08;;;;;;;11.60;1.83;;;;;;;;;;4948965;29;20051;-65
2022/05/26 11:41:37;;;;;;;10.33;1.93;;;;;;;;;;4932833;29;20051;-65
2022/05/26 11:44:06;;;;;;;8.95;1.73;;;;;;;;;;4931900;28;20059;-65
2022/05/26 11:46:47;;;;;;;8.25;1.80;;;;;;;;;;4949265;29;20054;-66
2022/05/26 11:49:43;;;;;;;7.15;1.30;;;;;;;;;;4945653;28;20098;-65
2022/05/26 11:52:12;;;;;;;8.35;1.80;;;;;;;;;;4942620;29;20055;-65
2022/05/26 11:54:59;;;;;;;5.97;1.55;;;;;;;;;;4949633;29;20062;-65
2022/05/26 11:57:37;;;;;;;8.13;1.80;;;;;;;;;;4947568;28;20074;-66
2022/05/26 12:00:19;;;;;;;9.35;1.80;;;;;;;;;;4930871;29;20066;-66
2022/05/26 12:02:47;;;;;;;7.30;1.85;;;;;;;;;;4931395;29;20069;-65
2022/05/26 12:05:33;;;;;;;8.10;1.70;;;;;;;;;;4948279;29;20047;-65
2022/05/26 12:08:03;;;;;;;9.93;1.75;;;;;;;;;;4948572;29;20619;-65
2022/05/26 12:10:38;;;;;;;10.50;2.05;;;;;;;;;;4944031;29;20067;-65
2022/05/26 12:13:22;;;;;;;10.98;2.00;;;;;;;;;;4929658;29;20131;-65
2022/05/26 12:16:09;;;;;;;21.40;2.20;;;;;;;;;;4932172;29;20055;-65
2022/05/26 12:18:40;;;;;;;11.23;2.67;;;;;;;;;;4931831;29;20043;-65
2022/05/26 12:21:15;;;;;;;14.75;2.47;;;;;;;;;;4928429;29;20056;-65
2022/05/26 12:23:44;;;;;;;14.25;1.95;;;;;;;;;;4929210;29;20059;-65
2022/05/26 12:26:31;;;;;;;12.20;2.00;;;;;;;;;;4928702;29;20078;-65
2022/05/26 12:29:14;;;;;;;8.88;1.90;;;;;;;;;;4925825;29;20516;-65
2022/05/26 12:31:56;;;;;;;11.10;1.67;;;;;;;;;;4929475;29;20143;-65
2022/05/26 12:34:26;;;;;;;12.73;1.23;;;;;;;;;;4925876;29;20499;-65
2022/05/26 12:36:57;;;;;;;9.60;1.88;;;;;;;;;;4923546;29;20083;-65
2022/05/26 12:39:45;;;;;;;9.70;1.80;;;;;;;;;;4928909;29;20055;-65
2022/05/26 12:42:19;;;;;;;5.35;1.60;;;;;;;;;;4918276;29;20463;-66
2022/05/26 12:44:58;;;;;;;7.90;1.50;;;;;;;;;;4928533;29;20130;-65
2022/05/26 12:47:37;;;;;;;7.75;1.58;;;;;;;;;;4927596;29;20052;-65
2022/05/26 12:50:06;;;;;;;10.50;1.70;;;;;;;;;;4923144;29;20055;-65
2022/05/26 12:52:34;;;;;;;9.20;1.75;;;;;;;;;;4930739;29;20055;-65
2022/05/26 12:55:17;;;;;;;9.20;1.63;;;;;;;;;;4927204;29;20193;-65
2022/05/26 12:57:47;;;;;;;10.13;1.50;;;;;;;;;;4923701;29;20135;-65
2022/05/26 13:00:22;;;;;;;5.60;1.40;;;;;;;;;;4926993;29;20056;-66
2022/05/26 13:02:50;;;;;;;8.88;1.77;;;;;;;;;;4928774;29;20078;-66
2022/05/26 13:05:18;;;;;;;10.38;2.00;;;;;;;;;;4929233;29;20044;-66
2022/05/26 13:07:47;;;;;;;13.55;2.90;;;;;;;;;;4933149;29;20073;-65
2022/05/26 13:10:16;;;;;;;9.60;2.33;;;;;;;;;;4926753;29;20513;-66
2022/05/26 13:12:47;;;;;;;7.05;2.20;;;;;;;;;;4947714;29;20399;-66
2022/05/26 13:15:21;;;;;;;9.77;2.20;;;;;;;;;;4945583;28;20308;-66
2022/05/26 13:17:49;;;;;;;8.38;2.38;;;;;;;;;;4947194;29;20066;-66
2022/05/26 13:20:22;;;;;;;9.02;2.47;;;;;;;;;;4947212;29;20051;-66
2022/05/26 13:22:49;;;;;;;9.63;2.75;;;;;;;;;;4929978;29;20106;-66
2022/05/26 13:25:24;;;;;;;11.43;2.38;;;;;;;;;;4948241;28;20059;-65
2022/05/26 13:27:53;;;;;;;13.70;2.45;;;;;;;;;;4930741;29;20063;-66
2022/05/26 13:33:23;;;;;;;13.23;2.45;;;;;;;;;;4907670;29;20063;-65
2022/05/26 13:35:54;;;;;;;14.40;3.08;;;;;;;;;;4906379;29;20055;-65
2022/05/26 13:38:28;;;;;;;13.23;3.00;;;;;;;;;;4924577;29;20066;-65
2022/05/26 13:40:57;;;;;;;11.68;2.50;;;;;;;;;;4947956;29;20106;-66
2022/05/26 13:43:24;;;;;;;11.38;2.53;;;;;;;;;;4943971;29;20487;-66
2022/05/26 13:45:52;;;;;;;8.68;2.10;;;;;;;;;;4947290;29;20561;-65
2022/05/26 13:48:28;;;;;;;11.77;2.50;;;;;;;;;;4946031;29;20051;-65
2022/05/26 13:50:55;;;;;;;10.38;2.63;;;;;;;;;;4947681;29;20131;-65
2022/05/26 13:53:22;;;;;;;15.95;2.90;;;;;;;;;;4947140;29;20051;-65
2022/05/26 13:55:50;;;;;;;13.93;3.15;;;;;;;;;;4930838;29;20055;-64
2022/05/26 13:58:20;;;;;;;13.80;2.65;;;;;;;;;;4947030;29;20059;-65
2022/05/26 14:00:57;;;;;;;10.00;2.25;;;;;;;;;;4938424;29;20111;-65
2022/05/26 14:03:26;;;;;;;12.80;2.40;;;;;;;;;;4921604;29;20051;-65
2022/05/26 14:06:03;;;;;;;9.38;2.45;;;;;;;;;;4941221;29;20066;-65
2022/05/26 14:08:30;;;;;;;8.77;1.70;;;;;;;;;;4916034;29;20143;-65
2022/05/26 14:10:58;;;;;;;7.63;1.88;;;;;;;;;;4934521;29;20391;-65
2022/05/26 14:13:36;;;;;;;10.05;2.25;;;;;;;;;;4947013;29;20062;-65
2022/05/26 14:16:18;;;;;;;13.20;2.97;;;;;;;;;;4940983;29;20055;-65
2022/05/26 14:18:46;;;;;;;14.68;2.72;;;;;;;;;;4940703;29;20779;-65
2022/05/26 14:21:23;;;;;;;10.93;2.50;;;;;;;;;;4943857;28;20455;-65
2022/05/26 14:23:53;;;;;;;10.48;2.30;;;;;;;;;;4935721;29;20181;-65
2022/05/26 14:26:29;;;;;;;12.55;2.85;;;;;;;;;;4943745;28;20384;-65
2022/05/26 14:28:57;;;;;;;12.23;2.80;;;;;;;;;;4923872;29;20063;-65
2022/05/26 14:31:26;;;;;;;9.52;2.45;;;;;;;;;;4944957;29;20047;-65
2022/05/26 14:33:57;;;;;;;11.05;2.85;;;;;;;;;;4941717;29;20776;-65
2022/05/26 14:36:24;;;;;;;13.48;2.78;;;;;;;;;;4945605;29;20546;-65
2022/05/26 14:38:51;;;;;;;10.75;3.03;;;;;;;;;;4949986;29;20114;-65
2022/05/26 14:41:19;;;;;;;11.15;2.95;;;;;;;;;;4950647;29;20565;-65
2022/05/26 14:43:46;;;;;;;13.60;3.00;;;;;;;;;;4947626;29;20082;-65
2022/05/26 14:46:15;;;;;;;16.73;3.30;;;;;;;;;;4945010;29;20090;-65
2022/05/26 14:48:43;;;;;;;14.57;3.30;;;;;;;;;;4931144;29;20114;-65
2022/05/26 14:51:13;;;;;;;10.93;2.58;;;;;;;;;;4950097;29;20410;-65
2022/05/26 14:56:26;;;;;;;10.10;2.10;;;;;;;;;;4950861;29;20094;-65
2022/05/26 14:58:53;;;;;;;10.23;2.00;;;;;;;;;;4932835;29;20058;-65
2022/05/26 15:01:22;;;;;;;9.18;1.92;;;;;;;;;;4950418;29;20051;-65
2022/05/26 15:03:49;;;;;;;9.07;2.10;;;;;;;;;;4945808;28;20051;-65
2022/05/26 15:06:18;;;;;;;13.20;2.72;;;;;;;;;;4945965;29;20051;-65
2022/05/26 15:08:46;;;;;;;8.65;2.10;;;;;;;;;;4939594;29;20052;-64
2022/05/26 15:11:14;;;;;;;12.32;2.05;;;;;;;;;;4920493;29;20063;-65
2022/05/26 15:13:41;;;;;;;12.38;2.45;;;;;;;;;;4941960;28;20058;-65
2022/05/26 15:16:10;;;;;;;9.75;2.38;;;;;;;;;;4947158;29;20413;-65
2022/05/26 15:18:39;;;;;;;11.00;2.45;;;;;;;;;;4932166;29;20047;-65
2022/05/26 15:21:07;;;;;;;9.15;2.00;;;;;;;;;;4930060;29;20510;-65
2022/05/26 15:23:34;;;;;;;9.82;2.45;;;;;;;;;;4949725;29;20921;-65
2022/05/26 15:26:11;;;;;;;10.82;2.22;;;;;;;;;;4932417;29;20071;-65
2022/05/26 15:28:39;;;;;;;14.13;3.58;;;;;;;;;;4927258;29;20513;-65
2022/05/26 15:31:06;;;;;;;13.10;3.78;;;;;;;;;;4947768;29;20059;-66
2022/05/26 15:33:33;;;;;;;12.10;2.67;;;;;;;;;;4931268;29;20059;-65
2022/05/26 15:36:01;;;;;;;12.65;2.70;;;;;;;;;;4949033;29;20050;-65
2022/05/26 15:38:32;;;;;;;12.50;2.88;;;;;;;;;;4949177;28;20059;-65